sensor_id;sensor_type;location;lat;lon;timestamp;P1;durP1;ratioP1;P2;durP2;ratioP2
5022;SDS011;2530;47.990;7.866;2023-04-08T00:00:20;3.97;;;3.33;;
5022;SDS011;2530;47.990;7.866;2023-04-08T00:03:02;3.00;;;2.80;;
5022;SDS011;2530;47.990;7.866;2023-04-08T00:10:59;3.00;;;2.70;;
5022;SDS011;2530;47.990;7.866;2023-04-08T00:13:34;3.00;;;2.80;;
5022;SDS011;2530;47.990;7.866;2023-04-08T00:16:06;2.65;;;2.45;;
5022;SDS011;2530;47.990;7.866;2023-04-08T00:18:40;3.20;;;2.90;;
5022;SDS011;2530;47.990;7.866;2023-04-08T00:21:15;3.33;;;2.70;;
5022;SDS011;2530;47.990;7.866;2023-04-08T00:23:44;3.10;;;2.90;;
5022;SDS011;2530;47.990;7.866;2023-04-08T00:26:15;6.00;;;3.40;;
5022;SDS011;2530;47.990;7.866;2023-04-08T00:31:48;3.80;;;3.40;;
5022;SDS011;2530;47.990;7.866;2023-04-08T00:34:22;4.50;;;4.10;;
5022;SDS011;2530;47.990;7.866;2023-04-08T00:36:59;4.25;;;3.90;;
5022;SDS011;2530;47.990;7.866;2023-04-08T00:39:40;4.18;;;3.88;;
5022;SDS011;2530;47.990;7.866;2023-04-08T00:42:18;4.40;;;4.10;;
5022;SDS011;2530;47.990;7.866;2023-04-08T00:45:10;4.80;;;4.40;;
5022;SDS011;2530;47.990;7.866;2023-04-08T00:47:51;5.05;;;4.65;;
5022;SDS011;2530;47.990;7.866;2023-04-08T00:50:32;4.80;;;4.40;;
5022;SDS011;2530;47.990;7.866;2023-04-08T00:53:08;5.22;;;4.82;;
5022;SDS011;2530;47.990;7.866;2023-04-08T00:55:37;5.13;;;4.73;;
5022;SDS011;2530;47.990;7.866;2023-04-08T00:58:08;5.05;;;4.65;;
5022;SDS011;2530;47.990;7.866;2023-04-08T01:00:55;4.90;;;4.50;;
5022;SDS011;2530;47.990;7.866;2023-04-08T01:04:17;5.50;;;5.00;;
5022;SDS011;2530;47.990;7.866;2023-04-08T01:06:55;4.80;;;4.40;;
5022;SDS011;2530;47.990;7.866;2023-04-08T01:10:01;5.30;;;4.90;;
5022;SDS011;2530;47.990;7.866;2023-04-08T01:12:52;5.45;;;4.95;;
5022;SDS011;2530;47.990;7.866;2023-04-08T01:15:42;5.40;;;5.00;;
5022;SDS011;2530;47.990;7.866;2023-04-08T01:18:17;5.15;;;4.70;;
5022;SDS011;2530;47.990;7.866;2023-04-08T01:20:45;5.40;;;4.90;;
5022;SDS011;2530;47.990;7.866;2023-04-08T01:23:37;5.30;;;4.80;;
5022;SDS011;2530;47.990;7.866;2023-04-08T01:26:13;5.10;;;4.60;;
5022;SDS011;2530;47.990;7.866;2023-04-08T01:28:50;5.05;;;4.65;;
5022;SDS011;2530;47.990;7.866;2023-04-08T01:31:23;5.00;;;4.50;;
5022;SDS011;2530;47.990;7.866;2023-04-08T01:33:50;4.95;;;4.45;;
5022;SDS011;2530;47.990;7.866;2023-04-08T01:36:42;4.60;;;4.20;;
5022;SDS011;2530;47.990;7.866;2023-04-08T01:39:12;4.90;;;4.50;;
5022;SDS011;2530;47.990;7.866;2023-04-08T01:41:45;4.97;;;4.57;;
5022;SDS011;2530;47.990;7.866;2023-04-08T01:44:20;5.20;;;4.78;;
5022;SDS011;2530;47.990;7.866;2023-04-08T01:46:57;4.75;;;4.28;;
5022;SDS011;2530;47.990;7.866;2023-04-08T01:49:32;4.57;;;4.17;;
5022;SDS011;2530;47.990;7.866;2023-04-08T01:52:01;4.90;;;4.40;;
5022;SDS011;2530;47.990;7.866;2023-04-08T01:54:34;5.20;;;4.70;;
5022;SDS011;2530;47.990;7.866;2023-04-08T01:57:05;5.90;;;5.40;;
5022;SDS011;2530;47.990;7.866;2023-04-08T02:00:09;5.78;;;5.28;;
5022;SDS011;2530;47.990;7.866;2023-04-08T02:02:44;6.53;;;5.90;;
5022;SDS011;2530;47.990;7.866;2023-04-08T02:05:14;5.20;;;4.70;;
5022;SDS011;2530;47.990;7.866;2023-04-08T02:07:48;5.90;;;5.40;;
5022;SDS011;2530;47.990;7.866;2023-04-08T02:10:19;4.93;;;4.53;;
5022;SDS011;2530;47.990;7.866;2023-04-08T02:12:55;5.28;;;4.78;;
5022;SDS011;2530;47.990;7.866;2023-04-08T02:15:34;4.82;;;4.43;;
5022;SDS011;2530;47.990;7.866;2023-04-08T02:18:10;5.63;;;4.95;;
5022;SDS011;2530;47.990;7.866;2023-04-08T02:20:45;5.90;;;5.40;;
5022;SDS011;2530;47.990;7.866;2023-04-08T02:23:20;5.25;;;4.75;;
5022;SDS011;2530;47.990;7.866;2023-04-08T02:25:48;5.90;;;5.40;;
5022;SDS011;2530;47.990;7.866;2023-04-08T02:28:16;5.30;;;4.90;;
5022;SDS011;2530;47.990;7.866;2023-04-08T02:30:52;6.03;;;5.43;;
5022;SDS011;2530;47.990;7.866;2023-04-08T02:33:20;5.30;;;4.80;;
5022;SDS011;2530;47.990;7.866;2023-04-08T02:35:47;5.45;;;4.95;;
5022;SDS011;2530;47.990;7.866;2023-04-08T02:38:15;5.20;;;4.80;;
5022;SDS011;2530;47.990;7.866;2023-04-08T02:40:40;5.20;;;4.80;;
5022;SDS011;2530;47.990;7.866;2023-04-08T02:43:06;4.88;;;4.47;;
5022;SDS011;2530;47.990;7.866;2023-04-08T02:45:42;4.68;;;4.25;;
5022;SDS011;2530;47.990;7.866;2023-04-08T02:48:08;5.30;;;4.78;;
5022;SDS011;2530;47.990;7.866;2023-04-08T02:50:34;4.60;;;4.20;;
5022;SDS011;2530;47.990;7.866;2023-04-08T02:53:00;5.20;;;4.80;;
5022;SDS011;2530;47.990;7.866;2023-04-08T02:55:26;5.15;;;4.60;;
5022;SDS011;2530;47.990;7.866;2023-04-08T02:57:51;5.38;;;4.97;;
5022;SDS011;2530;47.990;7.866;2023-04-08T03:00:17;4.95;;;4.55;;
5022;SDS011;2530;47.990;7.866;2023-04-08T03:02:43;5.28;;;4.88;;
5022;SDS011;2530;47.990;7.866;2023-04-08T03:05:08;5.07;;;4.60;;
5022;SDS011;2530;47.990;7.866;2023-04-08T03:07:34;5.00;;;4.60;;
5022;SDS011;2530;47.990;7.866;2023-04-08T03:10:00;4.83;;;4.43;;
5022;SDS011;2530;47.990;7.866;2023-04-08T03:12:26;4.78;;;4.38;;
5022;SDS011;2530;47.990;7.866;2023-04-08T03:14:52;4.70;;;4.30;;
5022;SDS011;2530;47.990;7.866;2023-04-08T03:17:18;5.10;;;4.60;;
5022;SDS011;2530;47.990;7.866;2023-04-08T03:19:44;5.00;;;4.60;;
5022;SDS011;2530;47.990;7.866;2023-04-08T03:22:09;5.60;;;5.10;;
5022;SDS011;2530;47.990;7.866;2023-04-08T03:24:35;4.65;;;4.25;;
5022;SDS011;2530;47.990;7.866;2023-04-08T03:27:01;5.10;;;4.60;;
5022;SDS011;2530;47.990;7.866;2023-04-08T03:29:27;5.30;;;4.90;;
5022;SDS011;2530;47.990;7.866;2023-04-08T03:31:53;5.00;;;4.60;;
5022;SDS011;2530;47.990;7.866;2023-04-08T03:34:18;5.00;;;4.50;;
5022;SDS011;2530;47.990;7.866;2023-04-08T03:36:44;4.80;;;4.40;;
5022;SDS011;2530;47.990;7.866;2023-04-08T03:39:10;5.20;;;4.70;;
5022;SDS011;2530;47.990;7.866;2023-04-08T03:41:35;4.90;;;4.40;;
5022;SDS011;2530;47.990;7.866;2023-04-08T03:44:01;5.00;;;4.60;;
5022;SDS011;2530;47.990;7.866;2023-04-08T03:46:26;5.60;;;4.97;;
5022;SDS011;2530;47.990;7.866;2023-04-08T03:48:52;4.95;;;4.50;;
5022;SDS011;2530;47.990;7.866;2023-04-08T03:51:17;4.88;;;4.47;;
5022;SDS011;2530;47.990;7.866;2023-04-08T03:53:43;5.45;;;4.78;;
5022;SDS011;2530;47.990;7.866;2023-04-08T03:56:08;4.90;;;4.50;;
5022;SDS011;2530;47.990;7.866;2023-04-08T03:58:34;4.47;;;4.17;;
5022;SDS011;2530;47.990;7.866;2023-04-08T04:01:00;5.13;;;4.73;;
5022;SDS011;2530;47.990;7.866;2023-04-08T04:03:25;4.83;;;4.43;;
5022;SDS011;2530;47.990;7.866;2023-04-08T04:05:51;5.10;;;4.60;;
5022;SDS011;2530;47.990;7.866;2023-04-08T04:08:16;5.03;;;4.63;;
5022;SDS011;2530;47.990;7.866;2023-04-08T04:10:42;4.90;;;4.50;;
5022;SDS011;2530;47.990;7.866;2023-04-08T04:13:08;5.68;;;5.18;;
5022;SDS011;2530;47.990;7.866;2023-04-08T04:15:36;5.53;;;4.90;;
5022;SDS011;2530;47.990;7.866;2023-04-08T04:18:03;5.88;;;5.28;;
5022;SDS011;2530;47.990;7.866;2023-04-08T04:20:29;5.07;;;4.67;;
5022;SDS011;2530;47.990;7.866;2023-04-08T04:22:54;5.80;;;4.90;;
5022;SDS011;2530;47.990;7.866;2023-04-08T04:25:20;5.40;;;5.00;;
5022;SDS011;2530;47.990;7.866;2023-04-08T04:27:46;5.40;;;4.90;;
5022;SDS011;2530;47.990;7.866;2023-04-08T04:30:11;5.40;;;5.00;;
5022;SDS011;2530;47.990;7.866;2023-04-08T04:32:39;5.57;;;4.97;;
5022;SDS011;2530;47.990;7.866;2023-04-08T04:35:07;4.53;;;4.18;;
5022;SDS011;2530;47.990;7.866;2023-04-08T04:37:36;5.75;;;5.00;;
5022;SDS011;2530;47.990;7.866;2023-04-08T04:40:02;5.40;;;4.90;;
5022;SDS011;2530;47.990;7.866;2023-04-08T04:42:28;5.80;;;5.30;;
5022;SDS011;2530;47.990;7.866;2023-04-08T04:44:54;4.80;;;4.40;;
5022;SDS011;2530;47.990;7.866;2023-04-08T04:47:20;4.80;;;4.40;;
5022;SDS011;2530;47.990;7.866;2023-04-08T04:49:45;5.10;;;4.60;;
5022;SDS011;2530;47.990;7.866;2023-04-08T04:52:11;5.47;;;4.70;;
5022;SDS011;2530;47.990;7.866;2023-04-08T04:54:37;5.30;;;4.80;;
5022;SDS011;2530;47.990;7.866;2023-04-08T04:57:02;4.87;;;4.40;;
5022;SDS011;2530;47.990;7.866;2023-04-08T04:59:28;4.90;;;4.50;;
5022;SDS011;2530;47.990;7.866;2023-04-08T05:01:53;4.90;;;4.50;;
5022;SDS011;2530;47.990;7.866;2023-04-08T05:04:21;5.90;;;5.40;;
5022;SDS011;2530;47.990;7.866;2023-04-08T05:06:47;5.32;;;4.88;;
5022;SDS011;2530;47.990;7.866;2023-04-08T05:09:13;5.70;;;5.20;;
5022;SDS011;2530;47.990;7.866;2023-04-08T05:11:38;6.33;;;5.83;;
5022;SDS011;2530;47.990;7.866;2023-04-08T05:14:04;7.20;;;6.60;;
5022;SDS011;2530;47.990;7.866;2023-04-08T05:16:30;6.72;;;6.13;;
5022;SDS011;2530;47.990;7.866;2023-04-08T05:18:56;6.80;;;6.15;;
5022;SDS011;2530;47.990;7.866;2023-04-08T05:21:22;8.10;;;7.30;;
5022;SDS011;2530;47.990;7.866;2023-04-08T05:23:48;8.32;;;7.63;;
5022;SDS011;2530;47.990;7.866;2023-04-08T05:26:15;7.40;;;6.70;;
5022;SDS011;2530;47.990;7.866;2023-04-08T05:28:41;8.50;;;7.70;;
5022;SDS011;2530;47.990;7.866;2023-04-08T05:31:06;15.23;;;12.43;;
5022;SDS011;2530;47.990;7.866;2023-04-08T05:33:32;8.07;;;7.27;;
5022;SDS011;2530;47.990;7.866;2023-04-08T05:35:57;6.57;;;5.97;;
5022;SDS011;2530;47.990;7.866;2023-04-08T05:38:23;5.80;;;5.30;;
5022;SDS011;2530;47.990;7.866;2023-04-08T05:40:48;5.40;;;5.00;;
5022;SDS011;2530;47.990;7.866;2023-04-08T05:43:14;5.22;;;4.82;;
5022;SDS011;2530;47.990;7.866;2023-04-08T05:45:40;5.45;;;4.95;;
5022;SDS011;2530;47.990;7.866;2023-04-08T05:48:05;4.80;;;4.40;;
5022;SDS011;2530;47.990;7.866;2023-04-08T05:50:31;5.07;;;4.67;;
5022;SDS011;2530;47.990;7.866;2023-04-08T05:52:58;4.72;;;4.32;;
5022;SDS011;2530;47.990;7.866;2023-04-08T05:55:24;4.83;;;4.43;;
5022;SDS011;2530;47.990;7.866;2023-04-08T05:57:49;5.07;;;4.67;;
5022;SDS011;2530;47.990;7.866;2023-04-08T06:00:15;4.80;;;4.40;;
5022;SDS011;2530;47.990;7.866;2023-04-08T06:02:41;4.75;;;4.35;;
5022;SDS011;2530;47.990;7.866;2023-04-08T06:05:07;5.70;;;4.60;;
5022;SDS011;2530;47.990;7.866;2023-04-08T06:07:33;4.75;;;4.35;;
5022;SDS011;2530;47.990;7.866;2023-04-08T06:09:58;5.00;;;4.50;;
5022;SDS011;2530;47.990;7.866;2023-04-08T06:12:24;5.03;;;4.60;;
5022;SDS011;2530;47.990;7.866;2023-04-08T06:14:53;5.17;;;4.30;;
5022;SDS011;2530;47.990;7.866;2023-04-08T06:17:22;5.10;;;4.60;;
5022;SDS011;2530;47.990;7.866;2023-04-08T06:19:48;5.22;;;4.72;;
5022;SDS011;2530;47.990;7.866;2023-04-08T06:22:13;5.50;;;4.90;;
5022;SDS011;2530;47.990;7.866;2023-04-08T06:24:39;5.78;;;5.28;;
5022;SDS011;2530;47.990;7.866;2023-04-08T06:27:05;6.40;;;5.40;;
5022;SDS011;2530;47.990;7.866;2023-04-08T06:29:30;5.53;;;5.05;;
5022;SDS011;2530;47.990;7.866;2023-04-08T06:31:57;5.97;;;5.38;;
5022;SDS011;2530;47.990;7.866;2023-04-08T06:34:23;6.15;;;5.65;;
5022;SDS011;2530;47.990;7.866;2023-04-08T06:36:48;5.80;;;5.30;;
5022;SDS011;2530;47.990;7.866;2023-04-08T06:39:14;6.30;;;5.70;;
5022;SDS011;2530;47.990;7.866;2023-04-08T06:41:40;6.25;;;5.75;;
5022;SDS011;2530;47.990;7.866;2023-04-08T06:44:06;6.20;;;5.60;;
5022;SDS011;2530;47.990;7.866;2023-04-08T06:46:32;5.80;;;5.30;;
5022;SDS011;2530;47.990;7.866;2023-04-08T06:48:57;5.70;;;5.30;;
5022;SDS011;2530;47.990;7.866;2023-04-08T06:51:23;5.43;;;5.03;;
5022;SDS011;2530;47.990;7.866;2023-04-08T06:53:48;6.37;;;5.87;;
5022;SDS011;2530;47.990;7.866;2023-04-08T06:56:14;6.40;;;5.90;;
5022;SDS011;2530;47.990;7.866;2023-04-08T06:58:39;6.60;;;6.10;;
5022;SDS011;2530;47.990;7.866;2023-04-08T07:01:05;7.07;;;5.40;;
5022;SDS011;2530;47.990;7.866;2023-04-08T07:03:30;6.03;;;5.53;;
5022;SDS011;2530;47.990;7.866;2023-04-08T07:05:56;6.07;;;5.57;;
5022;SDS011;2530;47.990;7.866;2023-04-08T07:08:21;6.60;;;6.00;;
5022;SDS011;2530;47.990;7.866;2023-04-08T07:10:47;6.53;;;5.93;;
5022;SDS011;2530;47.990;7.866;2023-04-08T07:13:13;6.10;;;5.60;;
5022;SDS011;2530;47.990;7.866;2023-04-08T07:15:39;6.25;;;5.75;;
5022;SDS011;2530;47.990;7.866;2023-04-08T07:18:05;6.20;;;5.70;;
5022;SDS011;2530;47.990;7.866;2023-04-08T07:20:31;6.40;;;5.90;;
5022;SDS011;2530;47.990;7.866;2023-04-08T07:22:59;6.65;;;5.95;;
5022;SDS011;2530;47.990;7.866;2023-04-08T07:25:25;6.40;;;5.80;;
5022;SDS011;2530;47.990;7.866;2023-04-08T07:27:50;6.15;;;5.60;;
5022;SDS011;2530;47.990;7.866;2023-04-08T07:30:16;6.68;;;6.07;;
5022;SDS011;2530;47.990;7.866;2023-04-08T07:32:42;6.90;;;6.20;;
5022;SDS011;2530;47.990;7.866;2023-04-08T07:35:08;6.75;;;6.15;;
5022;SDS011;2530;47.990;7.866;2023-04-08T07:37:33;6.78;;;6.20;;
5022;SDS011;2530;47.990;7.866;2023-04-08T07:39:59;7.13;;;6.33;;
5022;SDS011;2530;47.990;7.866;2023-04-08T07:42:25;6.40;;;5.90;;
5022;SDS011;2530;47.990;7.866;2023-04-08T07:44:51;6.85;;;6.15;;
5022;SDS011;2530;47.990;7.866;2023-04-08T07:47:16;6.07;;;5.57;;
5022;SDS011;2530;47.990;7.866;2023-04-08T07:49:44;6.78;;;6.18;;
5022;SDS011;2530;47.990;7.866;2023-04-08T07:52:10;7.05;;;6.35;;
5022;SDS011;2530;47.990;7.866;2023-04-08T07:54:36;7.10;;;6.40;;
5022;SDS011;2530;47.990;7.866;2023-04-08T07:57:01;7.50;;;6.90;;
5022;SDS011;2530;47.990;7.866;2023-04-08T07:59:27;7.30;;;6.70;;
5022;SDS011;2530;47.990;7.866;2023-04-08T08:01:53;7.30;;;6.80;;
5022;SDS011;2530;47.990;7.866;2023-04-08T08:04:19;8.05;;;7.35;;
5022;SDS011;2530;47.990;7.866;2023-04-08T08:06:45;8.25;;;7.55;;
5022;SDS011;2530;47.990;7.866;2023-04-08T08:09:11;7.90;;;7.20;;
5022;SDS011;2530;47.990;7.866;2023-04-08T08:11:37;8.20;;;7.50;;
5022;SDS011;2530;47.990;7.866;2023-04-08T08:14:03;7.60;;;6.90;;
5022;SDS011;2530;47.990;7.866;2023-04-08T08:16:29;8.53;;;7.80;;
5022;SDS011;2530;47.990;7.866;2023-04-08T08:18:55;9.30;;;8.40;;
5022;SDS011;2530;47.990;7.866;2023-04-08T08:21:21;7.87;;;7.17;;
5022;SDS011;2530;47.990;7.866;2023-04-08T08:23:47;7.68;;;6.97;;
5022;SDS011;2530;47.990;7.866;2023-04-08T08:26:13;7.47;;;6.70;;
5022;SDS011;2530;47.990;7.866;2023-04-08T08:28:38;7.33;;;6.63;;
5022;SDS011;2530;47.990;7.866;2023-04-08T08:31:04;8.40;;;7.57;;
5022;SDS011;2530;47.990;7.866;2023-04-08T08:33:30;8.38;;;7.68;;
5022;SDS011;2530;47.990;7.866;2023-04-08T08:35:56;9.30;;;8.50;;
5022;SDS011;2530;47.990;7.866;2023-04-08T08:38:22;8.98;;;8.02;;
5022;SDS011;2530;47.990;7.866;2023-04-08T08:40:55;10.00;;;8.20;;
5022;SDS011;2530;47.990;7.866;2023-04-08T08:43:24;9.32;;;8.52;;
5022;SDS011;2530;47.990;7.866;2023-04-08T08:45:52;9.50;;;8.60;;
5022;SDS011;2530;47.990;7.866;2023-04-08T08:48:18;8.35;;;7.60;;
5022;SDS011;2530;47.990;7.866;2023-04-08T08:50:44;8.47;;;7.70;;
5022;SDS011;2530;47.990;7.866;2023-04-08T08:53:10;8.73;;;7.93;;
5022;SDS011;2530;47.990;7.866;2023-04-08T08:55:36;7.97;;;7.28;;
5022;SDS011;2530;47.990;7.866;2023-04-08T08:58:03;8.60;;;7.78;;
5022;SDS011;2530;47.990;7.866;2023-04-08T09:03:13;7.40;;;6.80;;
5022;SDS011;2530;47.990;7.866;2023-04-08T09:05:52;8.18;;;7.47;;
5022;SDS011;2530;47.990;7.866;2023-04-08T09:08:32;7.93;;;7.00;;
5022;SDS011;2530;47.990;7.866;2023-04-08T09:11:18;8.25;;;7.45;;
5022;SDS011;2530;47.990;7.866;2023-04-08T09:13:47;9.80;;;7.50;;
5022;SDS011;2530;47.990;7.866;2023-04-08T09:16:16;7.82;;;7.07;;
5022;SDS011;2530;47.990;7.866;2023-04-08T09:18:44;7.85;;;7.05;;
5022;SDS011;2530;47.990;7.866;2023-04-08T09:21:11;7.35;;;6.65;;
5022;SDS011;2530;47.990;7.866;2023-04-08T09:26:14;7.38;;;6.68;;
5022;SDS011;2530;47.990;7.866;2023-04-08T09:28:42;8.60;;;7.40;;
5022;SDS011;2530;47.990;7.866;2023-04-08T09:31:18;9.20;;;7.00;;
5022;SDS011;2530;47.990;7.866;2023-04-08T09:33:46;8.10;;;7.30;;
5022;SDS011;2530;47.990;7.866;2023-04-08T09:36:13;8.90;;;8.00;;
5022;SDS011;2530;47.990;7.866;2023-04-08T09:38:40;8.60;;;7.80;;
5022;SDS011;2530;47.990;7.866;2023-04-08T09:41:06;7.93;;;7.17;;
5022;SDS011;2530;47.990;7.866;2023-04-08T09:43:35;8.25;;;7.45;;
5022;SDS011;2530;47.990;7.866;2023-04-08T09:49:28;7.68;;;6.97;;
5022;SDS011;2530;47.990;7.866;2023-04-08T10:03:28;7.00;;;6.30;;
5022;SDS011;2530;47.990;7.866;2023-04-08T10:06:00;6.45;;;5.88;;
5022;SDS011;2530;47.990;7.866;2023-04-08T10:08:26;6.88;;;6.28;;
5022;SDS011;2530;47.990;7.866;2023-04-08T10:10:52;7.03;;;6.32;;
5022;SDS011;2530;47.990;7.866;2023-04-08T10:13:19;7.00;;;6.30;;
5022;SDS011;2530;47.990;7.866;2023-04-08T10:15:45;7.00;;;6.30;;
5022;SDS011;2530;47.990;7.866;2023-04-08T10:23:04;6.57;;;5.97;;
5022;SDS011;2530;47.990;7.866;2023-04-08T10:25:32;8.07;;;6.20;;
5022;SDS011;2530;47.990;7.866;2023-04-08T10:27:58;7.03;;;6.30;;
5022;SDS011;2530;47.990;7.866;2023-04-08T10:30:46;7.05;;;6.35;;
5022;SDS011;2530;47.990;7.866;2023-04-08T10:33:31;7.18;;;6.47;;
5022;SDS011;2530;47.990;7.866;2023-04-08T10:35:59;7.78;;;6.93;;
5022;SDS011;2530;47.990;7.866;2023-04-08T10:38:30;7.07;;;6.37;;
5022;SDS011;2530;47.990;7.866;2023-04-08T10:40:56;7.90;;;7.10;;
5022;SDS011;2530;47.990;7.866;2023-04-08T10:43:22;7.47;;;6.77;;
5022;SDS011;2530;47.990;7.866;2023-04-08T10:45:48;7.70;;;7.00;;
5022;SDS011;2530;47.990;7.866;2023-04-08T10:48:22;8.85;;;7.95;;
5022;SDS011;2530;47.990;7.866;2023-04-08T10:50:53;9.52;;;7.82;;
5022;SDS011;2530;47.990;7.866;2023-04-08T10:56:10;9.73;;;8.83;;
5022;SDS011;2530;47.990;7.866;2023-04-08T10:58:51;9.02;;;8.05;;
5022;SDS011;2530;47.990;7.866;2023-04-08T11:01:20;10.30;;;8.90;;
5022;SDS011;2530;47.990;7.866;2023-04-08T11:03:46;9.67;;;8.77;;
5022;SDS011;2530;47.990;7.866;2023-04-08T11:06:12;9.43;;;8.43;;
5022;SDS011;2530;47.990;7.866;2023-04-08T11:08:38;11.90;;;9.37;;
5022;SDS011;2530;47.990;7.866;2023-04-08T11:11:05;10.50;;;9.50;;
5022;SDS011;2530;47.990;7.866;2023-04-08T11:13:35;9.60;;;8.45;;
5022;SDS011;2530;47.990;7.866;2023-04-08T11:16:06;10.25;;;9.18;;
5022;SDS011;2530;47.990;7.866;2023-04-08T11:18:36;9.77;;;8.88;;
5022;SDS011;2530;47.990;7.866;2023-04-08T11:21:07;10.05;;;8.80;;
5022;SDS011;2530;47.990;7.866;2023-04-08T11:23:34;9.20;;;8.30;;
5022;SDS011;2530;47.990;7.866;2023-04-08T11:26:00;8.40;;;7.50;;
5022;SDS011;2530;47.990;7.866;2023-04-08T11:28:26;9.02;;;8.07;;
5022;SDS011;2530;47.990;7.866;2023-04-08T11:30:52;9.60;;;8.60;;
5022;SDS011;2530;47.990;7.866;2023-04-08T11:33:19;8.80;;;7.90;;
5022;SDS011;2530;47.990;7.866;2023-04-08T11:35:45;9.40;;;8.50;;
5022;SDS011;2530;47.990;7.866;2023-04-08T11:38:14;8.17;;;7.47;;
5022;SDS011;2530;47.990;7.866;2023-04-08T11:40:39;7.90;;;7.10;;
5022;SDS011;2530;47.990;7.866;2023-04-08T11:43:20;7.88;;;7.13;;
5022;SDS011;2530;47.990;7.866;2023-04-08T11:45:46;8.73;;;7.93;;
5022;SDS011;2530;47.990;7.866;2023-04-08T11:48:12;8.13;;;7.32;;
5022;SDS011;2530;47.990;7.866;2023-04-08T11:50:39;8.02;;;7.32;;
5022;SDS011;2530;47.990;7.866;2023-04-08T11:53:19;8.27;;;7.47;;
5022;SDS011;2530;47.990;7.866;2023-04-08T11:55:46;7.20;;;6.50;;
5022;SDS011;2530;47.990;7.866;2023-04-08T11:58:12;7.07;;;6.38;;
5022;SDS011;2530;47.990;7.866;2023-04-08T12:00:38;7.90;;;7.10;;
5022;SDS011;2530;47.990;7.866;2023-04-08T12:03:04;7.15;;;6.45;;
5022;SDS011;2530;47.990;7.866;2023-04-08T12:05:30;7.80;;;7.10;;
5022;SDS011;2530;47.990;7.866;2023-04-08T12:07:55;7.43;;;6.73;;
5022;SDS011;2530;47.990;7.866;2023-04-08T12:10:21;7.05;;;6.38;;
5022;SDS011;2530;47.990;7.866;2023-04-08T12:12:49;8.00;;;7.20;;
5022;SDS011;2530;47.990;7.866;2023-04-08T12:15:14;8.20;;;7.40;;
5022;SDS011;2530;47.990;7.866;2023-04-08T12:17:40;8.30;;;7.50;;
5022;SDS011;2530;47.990;7.866;2023-04-08T12:20:07;7.68;;;7.05;;
5022;SDS011;2530;47.990;7.866;2023-04-08T12:22:33;8.02;;;7.22;;
5022;SDS011;2530;47.990;7.866;2023-04-08T12:24:59;7.60;;;6.60;;
5022;SDS011;2530;47.990;7.866;2023-04-08T12:27:27;8.18;;;7.38;;
5022;SDS011;2530;47.990;7.866;2023-04-08T12:29:53;7.95;;;7.15;;
5022;SDS011;2530;47.990;7.866;2023-04-08T12:32:19;8.37;;;7.57;;
5022;SDS011;2530;47.990;7.866;2023-04-08T12:34:45;7.78;;;7.07;;
5022;SDS011;2530;47.990;7.866;2023-04-08T12:37:11;6.60;;;6.00;;
5022;SDS011;2530;47.990;7.866;2023-04-08T12:39:36;6.90;;;6.30;;
5022;SDS011;2530;47.990;7.866;2023-04-08T12:42:02;7.30;;;6.60;;
5022;SDS011;2530;47.990;7.866;2023-04-08T12:44:28;6.70;;;6.10;;
5022;SDS011;2530;47.990;7.866;2023-04-08T12:46:54;6.30;;;5.70;;
5022;SDS011;2530;47.990;7.866;2023-04-08T12:49:22;6.40;;;5.80;;
5022;SDS011;2530;47.990;7.866;2023-04-08T12:51:48;5.45;;;4.95;;
5022;SDS011;2530;47.990;7.866;2023-04-08T12:54:14;5.15;;;4.65;;
5022;SDS011;2530;47.990;7.866;2023-04-08T12:56:40;5.10;;;4.70;;
5022;SDS011;2530;47.990;7.866;2023-04-08T12:59:07;5.93;;;4.97;;
5022;SDS011;2530;47.990;7.866;2023-04-08T13:01:33;4.80;;;4.30;;
5022;SDS011;2530;47.990;7.866;2023-04-08T13:03:58;5.17;;;4.70;;
5022;SDS011;2530;47.990;7.866;2023-04-08T13:06:24;4.83;;;4.33;;
5022;SDS011;2530;47.990;7.866;2023-04-08T13:08:50;4.50;;;4.10;;
5022;SDS011;2530;47.990;7.866;2023-04-08T13:11:16;3.90;;;3.60;;
5022;SDS011;2530;47.990;7.866;2023-04-08T13:13:41;3.70;;;3.40;;
5022;SDS011;2530;47.990;7.866;2023-04-08T13:16:07;3.70;;;3.40;;
5022;SDS011;2530;47.990;7.866;2023-04-08T13:18:33;3.80;;;3.50;;
5022;SDS011;2530;47.990;7.866;2023-04-08T13:20:59;3.90;;;3.60;;
5022;SDS011;2530;47.990;7.866;2023-04-08T13:23:24;3.70;;;3.40;;
5022;SDS011;2530;47.990;7.866;2023-04-08T13:25:50;3.40;;;3.10;;
5022;SDS011;2530;47.990;7.866;2023-04-08T13:28:16;3.30;;;3.00;;
5022;SDS011;2530;47.990;7.866;2023-04-08T13:30:41;3.83;;;3.53;;
5022;SDS011;2530;47.990;7.866;2023-04-08T13:33:07;3.83;;;3.43;;
5022;SDS011;2530;47.990;7.866;2023-04-08T13:35:32;3.53;;;3.23;;
5022;SDS011;2530;47.990;7.866;2023-04-08T13:37:58;3.70;;;3.40;;
5022;SDS011;2530;47.990;7.866;2023-04-08T13:40:23;4.47;;;4.07;;
5022;SDS011;2530;47.990;7.866;2023-04-08T13:42:49;4.40;;;4.00;;
5022;SDS011;2530;47.990;7.866;2023-04-08T13:45:14;4.63;;;4.22;;
5022;SDS011;2530;47.990;7.866;2023-04-08T13:47:40;4.40;;;4.00;;
5022;SDS011;2530;47.990;7.866;2023-04-08T13:50:06;5.00;;;4.60;;
5022;SDS011;2530;47.990;7.866;2023-04-08T13:52:33;4.90;;;4.40;;
5022;SDS011;2530;47.990;7.866;2023-04-08T13:54:59;4.30;;;4.00;;
5022;SDS011;2530;47.990;7.866;2023-04-08T13:57:24;4.40;;;4.00;;
5022;SDS011;2530;47.990;7.866;2023-04-08T13:59:50;4.20;;;3.80;;
5022;SDS011;2530;47.990;7.866;2023-04-08T14:02:16;4.60;;;4.20;;
5022;SDS011;2530;47.990;7.866;2023-04-08T14:04:41;4.50;;;4.10;;
5022;SDS011;2530;47.990;7.866;2023-04-08T14:07:10;4.90;;;4.50;;
5022;SDS011;2530;47.990;7.866;2023-04-08T14:09:36;5.60;;;4.90;;
5022;SDS011;2530;47.990;7.866;2023-04-08T14:12:02;4.63;;;4.22;;
5022;SDS011;2530;47.990;7.866;2023-04-08T14:14:27;4.53;;;4.13;;
5022;SDS011;2530;47.990;7.866;2023-04-08T14:16:53;4.70;;;4.30;;
5022;SDS011;2530;47.990;7.866;2023-04-08T14:19:18;5.17;;;4.67;;
5022;SDS011;2530;47.990;7.866;2023-04-08T14:21:44;4.60;;;4.20;;
5022;SDS011;2530;47.990;7.866;2023-04-08T14:24:09;5.13;;;4.70;;
5022;SDS011;2530;47.990;7.866;2023-04-08T14:26:35;5.80;;;5.20;;
5022;SDS011;2530;47.990;7.866;2023-04-08T14:29:02;5.60;;;5.10;;
5022;SDS011;2530;47.990;7.866;2023-04-08T14:31:28;5.88;;;5.38;;
5022;SDS011;2530;47.990;7.866;2023-04-08T14:33:54;6.70;;;6.10;;
5022;SDS011;2530;47.990;7.866;2023-04-08T14:36:20;7.32;;;6.63;;
5022;SDS011;2530;47.990;7.866;2023-04-08T14:38:48;7.88;;;7.07;;
5022;SDS011;2530;47.990;7.866;2023-04-08T14:41:13;7.50;;;6.82;;
5022;SDS011;2530;47.990;7.866;2023-04-08T14:43:39;8.10;;;7.40;;
5022;SDS011;2530;47.990;7.866;2023-04-08T14:46:05;7.82;;;7.03;;
5022;SDS011;2530;47.990;7.866;2023-04-08T14:48:30;8.80;;;6.80;;
5022;SDS011;2530;47.990;7.866;2023-04-08T14:50:56;7.10;;;6.40;;
5022;SDS011;2530;47.990;7.866;2023-04-08T14:53:22;6.70;;;6.00;;
5022;SDS011;2530;47.990;7.866;2023-04-08T14:55:47;6.05;;;5.45;;
5022;SDS011;2530;47.990;7.866;2023-04-08T14:58:13;5.95;;;5.45;;
5022;SDS011;2530;47.990;7.866;2023-04-08T15:00:39;5.75;;;5.25;;
5022;SDS011;2530;47.990;7.866;2023-04-08T15:03:08;5.60;;;5.10;;
5022;SDS011;2530;47.990;7.866;2023-04-08T15:05:35;4.97;;;4.47;;
5022;SDS011;2530;47.990;7.866;2023-04-08T15:08:01;5.65;;;4.90;;
5022;SDS011;2530;47.990;7.866;2023-04-08T15:10:27;4.68;;;4.28;;
5022;SDS011;2530;47.990;7.866;2023-04-08T15:12:53;4.93;;;4.53;;
5022;SDS011;2530;47.990;7.866;2023-04-08T15:15:18;5.50;;;5.00;;
5022;SDS011;2530;47.990;7.866;2023-04-08T15:17:44;5.33;;;4.83;;
5022;SDS011;2530;47.990;7.866;2023-04-08T15:20:09;4.73;;;4.33;;
5022;SDS011;2530;47.990;7.866;2023-04-08T15:22:35;5.25;;;4.80;;
5022;SDS011;2530;47.990;7.866;2023-04-08T15:25:01;5.00;;;4.60;;
5022;SDS011;2530;47.990;7.866;2023-04-08T15:27:29;4.88;;;4.47;;
5022;SDS011;2530;47.990;7.866;2023-04-08T15:29:55;4.22;;;3.90;;
5022;SDS011;2530;47.990;7.866;2023-04-08T15:32:20;4.50;;;4.10;;
5022;SDS011;2530;47.990;7.866;2023-04-08T15:34:46;4.75;;;4.35;;
5022;SDS011;2530;47.990;7.866;2023-04-08T15:37:12;5.00;;;4.60;;
5022;SDS011;2530;47.990;7.866;2023-04-08T15:39:37;5.00;;;4.50;;
5022;SDS011;2530;47.990;7.866;2023-04-08T15:42:05;4.53;;;4.13;;
5022;SDS011;2530;47.990;7.866;2023-04-08T15:44:31;4.70;;;4.30;;
5022;SDS011;2530;47.990;7.866;2023-04-08T15:46:57;5.03;;;4.53;;
5022;SDS011;2530;47.990;7.866;2023-04-08T15:49:23;4.65;;;4.25;;
5022;SDS011;2530;47.990;7.866;2023-04-08T15:51:48;4.10;;;3.80;;
5022;SDS011;2530;47.990;7.866;2023-04-08T15:54:15;5.00;;;4.60;;
5022;SDS011;2530;47.990;7.866;2023-04-08T15:56:41;5.10;;;4.60;;